createdAt,value
2023-05-24T00:00:03.215Z,1015.31
2023-05-24T00:01:03.246Z,1015.33
2023-05-24T00:02:03.215Z,1015.34
2023-05-24T00:03:03.378Z,1015.33
2023-05-24T00:04:03.402Z,1015.36
2023-05-24T00:05:03.385Z,1015.38
2023-05-24T00:06:03.184Z,1015.39
2023-05-24T00:07:03.182Z,1015.39
2023-05-24T00:08:03.178Z,1015.42
2023-05-24T00:09:03.177Z,1015.44
2023-05-24T00:10:03.171Z,1015.42
2023-05-24T00:11:03.162Z,1015.47
2023-05-24T00:12:03.151Z,1015.45
2023-05-24T00:13:03.133Z,1015.44
2023-05-24T00:14:03.141Z,1015.47
2023-05-24T00:15:03.130Z,1015.49
2023-05-24T00:16:03.120Z,1015.49
2023-05-24T00:17:03.230Z,1015.52
2023-05-24T00:18:03.179Z,1015.58
2023-05-24T00:19:03.102Z,1015.59
2023-05-24T00:20:05.071Z,1015.58
2023-05-24T00:21:03.096Z,1015.53
2023-05-24T00:22:03.079Z,1015.55
2023-05-24T00:23:03.080Z,1015.55
2023-05-24T00:24:03.073Z,1015.54
2023-05-24T00:25:03.061Z,1015.58
2023-05-24T00:26:03.049Z,1015.56
2023-05-24T00:27:03.049Z,1015.55
2023-05-24T00:28:03.042Z,1015.57
2023-05-24T00:29:03.029Z,1015.57
2023-05-24T00:30:03.033Z,1015.55
2023-05-24T00:31:03.011Z,1015.58
2023-05-24T00:32:03.052Z,1015.57
2023-05-24T00:33:03.022Z,1015.58
2023-05-24T00:34:03.007Z,1015.58
2023-05-24T00:35:02.994Z,1015.55
2023-05-24T00:36:02.994Z,1015.64
2023-05-24T00:37:02.975Z,1015.63
2023-05-24T00:38:02.986Z,1015.65
2023-05-24T00:39:02.977Z,1015.65
2023-05-24T00:40:02.961Z,1015.63
2023-05-24T00:41:02.959Z,1015.63
2023-05-24T00:42:02.944Z,1015.64
2023-05-24T00:43:02.940Z,1015.62
2023-05-24T00:44:02.945Z,1015.64
2023-05-24T00:45:02.927Z,1015.66
2023-05-24T00:46:02.981Z,1015.65
2023-05-24T00:47:02.910Z,1015.63
2023-05-24T00:48:03.000Z,1015.59
2023-05-24T00:49:02.916Z,1015.64
2023-05-24T00:50:02.888Z,1015.62
2023-05-24T00:51:02.896Z,1015.62
2023-05-24T00:52:02.894Z,1015.58
2023-05-24T00:53:02.865Z,1015.60
2023-05-24T00:54:02.901Z,1015.58
2023-05-24T00:55:02.861Z,1015.57
2023-05-24T00:56:02.859Z,1015.55
2023-05-24T00:57:02.871Z,1015.51
2023-05-24T00:58:02.836Z,1015.55
2023-05-24T00:59:02.883Z,1015.54
2023-05-24T01:00:02.863Z,1015.50
2023-05-24T01:01:02.906Z,1015.52
2023-05-24T01:02:02.879Z,1015.49
2023-05-24T01:03:02.921Z,1015.49
2023-05-24T01:04:02.792Z,1015.47
2023-05-24T01:05:02.793Z,1015.48
2023-05-24T01:06:02.780Z,1015.49
2023-05-24T01:07:02.771Z,1015.49
2023-05-24T01:08:02.784Z,1015.54
2023-05-24T01:09:02.763Z,1015.56
2023-05-24T01:10:02.766Z,1015.56
2023-05-24T01:11:02.748Z,1015.54
2023-05-24T01:12:02.738Z,1015.54
2023-05-24T01:13:02.737Z,1015.52
2023-05-24T01:14:02.726Z,1015.55
2023-05-24T01:15:02.713Z,1015.54
2023-05-24T01:16:02.729Z,1015.53
2023-05-24T01:17:02.707Z,1015.53
2023-05-24T01:18:02.769Z,1015.52
2023-05-24T01:19:02.701Z,1015.51
2023-05-24T01:20:02.738Z,1015.55
2023-05-24T01:21:02.670Z,1015.56
2023-05-24T01:22:02.666Z,1015.57
2023-05-24T01:23:02.662Z,1015.55
2023-05-24T01:24:02.655Z,1015.54
2023-05-24T01:25:02.644Z,1015.59
2023-05-24T01:26:02.639Z,1015.56
2023-05-24T01:27:02.624Z,1015.58
2023-05-24T01:28:02.630Z,1015.60
2023-05-24T01:29:02.616Z,1015.59
2023-05-24T01:30:02.615Z,1015.61
2023-05-24T01:31:02.620Z,1015.59
2023-05-24T01:32:02.600Z,1015.59
2023-05-24T01:33:02.608Z,1015.56
2023-05-24T01:34:02.590Z,1015.58
2023-05-24T01:35:02.581Z,1015.59
2023-05-24T01:36:02.574Z,1015.55
2023-05-24T01:37:02.567Z,1015.54
2023-05-24T01:38:02.549Z,1015.58
2023-05-24T01:39:02.546Z,1015.54
2023-05-24T01:40:02.560Z,1015.53
2023-05-24T01:41:02.526Z,1015.52
2023-05-24T01:42:02.521Z,1015.51
2023-05-24T01:43:02.512Z,1015.49
2023-05-24T01:44:02.499Z,1015.51
2023-05-24T01:45:02.500Z,1015.56
2023-05-24T01:46:02.487Z,1015.57
2023-05-24T01:47:02.592Z,1015.55
2023-05-24T01:48:02.537Z,1015.54
2023-05-24T01:49:02.465Z,1015.51
2023-05-24T01:50:02.461Z,1015.52
2023-05-24T01:51:02.452Z,1015.50
2023-05-24T01:52:02.532Z,1015.54
2023-05-24T01:53:02.437Z,1015.49
2023-05-24T01:54:02.424Z,1015.55
2023-05-24T01:55:02.418Z,1015.51
2023-05-24T01:56:02.413Z,1015.51
2023-05-24T01:57:02.410Z,1015.51
2023-05-24T01:58:02.394Z,1015.52
2023-05-24T01:59:02.401Z,1015.50
2023-05-24T02:00:02.390Z,1015.53
2023-05-24T02:01:02.498Z,1015.54
2023-05-24T02:02:02.466Z,1015.53
2023-05-24T02:03:02.507Z,1015.51
2023-05-24T02:04:02.347Z,1015.51
2023-05-24T02:05:02.356Z,1015.52
2023-05-24T02:06:02.339Z,1015.45
2023-05-24T02:07:02.327Z,1015.46
2023-05-24T02:08:02.319Z,1015.43
2023-05-24T02:09:02.305Z,1015.43
2023-05-24T02:10:02.305Z,1015.42
2023-05-24T02:11:02.293Z,1015.44
2023-05-24T02:12:02.283Z,1015.41
2023-05-24T02:13:02.288Z,1015.36
2023-05-24T02:14:02.282Z,1015.38
2023-05-24T02:15:02.264Z,1015.39
2023-05-24T02:16:02.259Z,1015.38
2023-05-24T02:17:02.301Z,1015.41
2023-05-24T02:18:02.378Z,1015.42
2023-05-24T02:19:02.235Z,1015.39
2023-05-24T02:20:02.299Z,1015.39
2023-05-24T02:21:02.238Z,1015.38
2023-05-24T02:22:02.216Z,1015.34
2023-05-24T02:23:02.207Z,1015.34
2023-05-24T02:24:02.203Z,1015.37
2023-05-24T02:25:02.202Z,1015.40
2023-05-24T02:26:02.186Z,1015.37
2023-05-24T02:27:02.175Z,1015.33
2023-05-24T02:28:02.166Z,1015.37
2023-05-24T02:29:02.166Z,1015.39
2023-05-24T02:30:02.158Z,1015.36
2023-05-24T02:31:02.200Z,1015.41
2023-05-24T02:32:02.129Z,1015.40
2023-05-24T02:33:02.225Z,1015.36
2023-05-24T02:34:02.141Z,1015.35
2023-05-24T02:35:02.123Z,1015.38
2023-05-24T02:36:02.110Z,1015.37
2023-05-24T02:37:02.111Z,1015.40
2023-05-24T02:38:02.089Z,1015.43
2023-05-24T02:39:02.092Z,1015.39
2023-05-24T02:40:02.095Z,1015.40
2023-05-24T02:41:02.065Z,1015.35
2023-05-24T02:42:02.060Z,1015.37
2023-05-24T02:43:02.054Z,1015.36
2023-05-24T02:44:02.073Z,1015.38
2023-05-24T02:45:02.040Z,1015.36
2023-05-24T02:46:02.064Z,1015.42
2023-05-24T02:47:02.016Z,1015.40
2023-05-24T02:48:02.025Z,1015.37
2023-05-24T02:49:02.001Z,1015.40
2023-05-24T02:50:01.990Z,1015.41
2023-05-24T02:51:01.987Z,1015.42
2023-05-24T02:52:01.978Z,1015.38
2023-05-24T02:53:01.964Z,1015.37
2023-05-24T02:54:01.974Z,1015.35
2023-05-24T02:55:01.962Z,1015.38
2023-05-24T02:56:01.937Z,1015.35
2023-05-24T02:57:01.937Z,1015.38
2023-05-24T02:58:01.929Z,1015.38
2023-05-24T02:59:01.924Z,1015.38
2023-05-24T03:00:01.922Z,1015.37
2023-05-24T03:01:01.901Z,1015.36
2023-05-24T03:02:01.995Z,1015.36
2023-05-24T03:03:01.998Z,1015.34
2023-05-24T03:04:02.045Z,1015.35
2023-05-24T03:05:01.888Z,1015.36
2023-05-24T03:06:01.887Z,1015.29
2023-05-24T03:07:01.876Z,1015.31
2023-05-24T03:08:01.851Z,1015.34
2023-05-24T03:09:01.846Z,1015.36
2023-05-24T03:10:01.836Z,1015.31
2023-05-24T03:11:01.829Z,1015.29
2023-05-24T03:12:01.868Z,1015.30
2023-05-24T03:13:01.823Z,1015.30
2023-05-24T03:14:01.814Z,1015.26
2023-05-24T03:15:01.806Z,1015.27
2023-05-24T03:16:01.846Z,1015.28
2023-05-24T03:17:01.779Z,1015.28
2023-05-24T03:18:01.836Z,1015.26
2023-05-24T03:19:01.773Z,1015.30
2023-05-24T03:20:01.840Z,1015.29
2023-05-24T03:21:01.774Z,1015.32
2023-05-24T03:22:01.752Z,1015.29
2023-05-24T03:23:01.737Z,1015.25
2023-05-24T03:24:01.727Z,1015.25
2023-05-24T03:25:01.752Z,1015.25
2023-05-24T03:26:01.711Z,1015.24
2023-05-24T03:27:01.706Z,1015.25
2023-05-24T03:28:01.697Z,1015.25
2023-05-24T03:29:01.700Z,1015.20
2023-05-24T03:30:01.697Z,1015.19
2023-05-24T03:31:01.686Z,1015.16
2023-05-24T03:32:01.741Z,1015.13
2023-05-24T03:33:01.728Z,1015.14
2023-05-24T03:34:01.655Z,1015.13
2023-05-24T03:35:01.703Z,1015.14
2023-05-24T03:36:01.634Z,1015.15
2023-05-24T03:37:01.628Z,1015.20
2023-05-24T03:38:01.619Z,1015.22
2023-05-24T03:39:01.610Z,1015.20
2023-05-24T03:40:01.626Z,1015.25
2023-05-24T03:41:01.599Z,1015.22
2023-05-24T03:42:01.589Z,1015.25
2023-05-24T03:43:04.205Z,1015.28
2023-05-24T03:44:01.572Z,1015.26
2023-05-24T03:45:01.564Z,1015.31
2023-05-24T03:46:01.598Z,1015.31
2023-05-24T03:47:01.554Z,1015.28
2023-05-24T03:48:01.594Z,1015.26
2023-05-24T03:49:01.533Z,1015.30
2023-05-24T03:50:01.540Z,1015.34
2023-05-24T03:51:01.510Z,1015.36
2023-05-24T03:52:01.509Z,1015.38
2023-05-24T03:53:01.495Z,1015.36
2023-05-24T03:54:01.489Z,1015.37
2023-05-24T03:55:01.508Z,1015.40
2023-05-24T03:56:01.470Z,1015.35
2023-05-24T03:57:01.464Z,1015.34
2023-05-24T03:58:01.451Z,1015.38
2023-05-24T03:59:01.439Z,1015.37
2023-05-24T04:00:01.433Z,1015.42
2023-05-24T04:01:01.437Z,1015.42
2023-05-24T04:02:01.428Z,1015.39
2023-05-24T04:03:01.644Z,1015.37
2023-05-24T04:04:01.601Z,1015.38
2023-05-24T04:05:01.397Z,1015.38
2023-05-24T04:06:01.387Z,1015.36
2023-05-24T04:07:01.393Z,1015.34
2023-05-24T04:08:01.377Z,1015.37
2023-05-24T04:09:01.356Z,1015.36
2023-05-24T04:10:01.363Z,1015.36
2023-05-24T04:11:01.354Z,1015.37
2023-05-24T04:12:01.336Z,1015.40
2023-05-24T04:13:01.332Z,1015.38
2023-05-24T04:14:01.331Z,1015.40
2023-05-24T04:15:01.340Z,1015.45
2023-05-24T04:16:01.300Z,1015.43
2023-05-24T04:17:01.406Z,1015.46
2023-05-24T04:18:01.363Z,1015.46
2023-05-24T04:19:01.359Z,1015.47
2023-05-24T04:20:01.305Z,1015.51
2023-05-24T04:21:01.272Z,1015.49
2023-05-24T04:22:01.255Z,1015.53
2023-05-24T04:23:01.266Z,1015.53
2023-05-24T04:24:01.242Z,1015.53
2023-05-24T04:25:01.377Z,1015.55
2023-05-24T04:26:01.228Z,1015.58
2023-05-24T04:27:01.206Z,1015.56
2023-05-24T04:28:01.201Z,1015.57
2023-05-24T04:29:01.196Z,1015.60
2023-05-24T04:30:01.210Z,1015.63
2023-05-24T04:31:01.190Z,1015.62
2023-05-24T04:32:01.169Z,1015.64
2023-05-24T04:33:01.208Z,1015.66
2023-05-24T04:34:01.155Z,1015.66
2023-05-24T04:35:01.148Z,1015.67
2023-05-24T04:36:01.155Z,1015.66
2023-05-24T04:37:01.148Z,1015.66
2023-05-24T04:38:01.129Z,1015.70
2023-05-24T04:39:01.119Z,1015.73
2023-05-24T04:40:01.109Z,1015.74
2023-05-24T04:41:01.104Z,1015.76
2023-05-24T04:42:01.096Z,1015.70
2023-05-24T04:43:01.124Z,1015.72
2023-05-24T04:44:01.095Z,1015.70
2023-05-24T04:45:01.065Z,1015.73
2023-05-24T04:46:01.056Z,1015.74
2023-05-24T04:47:01.131Z,1015.73
2023-05-24T04:48:01.090Z,1015.73
2023-05-24T04:49:01.021Z,1015.75
2023-05-24T04:50:01.035Z,1015.77
2023-05-24T04:51:01.015Z,1015.81
2023-05-24T04:52:00.999Z,1015.78
2023-05-24T04:53:01.000Z,1015.76
2023-05-24T04:54:00.987Z,1015.79
2023-05-24T04:55:00.981Z,1015.80
2023-05-24T04:56:00.977Z,1015.85
2023-05-24T04:57:00.977Z,1015.87
2023-05-24T04:58:00.954Z,1015.87
2023-05-24T04:59:00.955Z,1015.89
2023-05-24T05:00:00.936Z,1015.88
2023-05-24T05:01:00.925Z,1015.90
2023-05-24T05:02:00.987Z,1015.88
2023-05-24T05:03:01.043Z,1015.90
2023-05-24T05:04:00.946Z,1015.89
2023-05-24T05:05:00.897Z,1015.86
2023-05-24T05:06:00.887Z,1015.87
2023-05-24T05:07:00.877Z,1015.88
2023-05-24T05:08:00.887Z,1015.91
2023-05-24T05:09:00.863Z,1015.88
2023-05-24T05:10:00.843Z,1015.93
2023-05-24T05:11:00.842Z,1015.91
2023-05-24T05:12:00.838Z,1015.93
2023-05-24T05:13:00.836Z,1015.95
2023-05-24T05:14:00.814Z,1015.98
2023-05-24T05:15:00.808Z,1015.94
2023-05-24T05:16:00.832Z,1015.93
2023-05-24T05:17:00.793Z,1015.97
2023-05-24T05:18:00.828Z,1016.03
2023-05-24T05:19:00.770Z,1016.01
2023-05-24T05:20:00.808Z,1016.07
2023-05-24T05:21:00.760Z,1016.06
2023-05-24T05:22:00.750Z,1016.06
2023-05-24T05:23:00.748Z,1016.09
2023-05-24T05:24:00.735Z,1016.07
2023-05-24T05:25:00.731Z,1016.12
2023-05-24T05:26:00.726Z,1016.11
2023-05-24T05:27:00.710Z,1016.14
2023-05-24T05:28:00.705Z,1016.16
2023-05-24T05:29:00.691Z,1016.18
2023-05-24T05:30:00.708Z,1016.14
2023-05-24T05:31:00.680Z,1016.16
2023-05-24T05:32:00.715Z,1016.16
2023-05-24T05:33:00.809Z,1016.17
2023-05-24T05:34:00.651Z,1016.14
2023-05-24T05:35:00.653Z,1016.13
2023-05-24T05:36:00.641Z,1016.13
2023-05-24T05:37:00.636Z,1016.10
2023-05-24T05:38:00.639Z,1016.08
2023-05-24T05:39:00.627Z,1016.08
2023-05-24T05:40:00.603Z,1016.04
2023-05-24T05:41:00.606Z,1016.07
2023-05-24T05:42:00.594Z,1016.05
2023-05-24T05:43:00.585Z,1016.05
2023-05-24T05:44:00.580Z,1016.08
2023-05-24T05:45:00.593Z,1016.07
2023-05-24T05:46:00.620Z,1016.13
2023-05-24T05:47:00.587Z,1016.10
2023-05-24T05:48:00.585Z,1016.09
2023-05-24T05:49:00.544Z,1016.09
2023-05-24T05:50:00.534Z,1016.10
2023-05-24T05:51:00.558Z,1016.15
2023-05-24T05:52:00.529Z,1016.18
2023-05-24T05:53:00.513Z,1016.14
2023-05-24T05:54:00.516Z,1016.17
2023-05-24T05:55:00.500Z,1016.18
2023-05-24T05:56:00.516Z,1016.16
2023-05-24T05:57:01.601Z,1016.14
2023-05-24T05:58:00.483Z,1016.13
2023-05-24T05:59:00.486Z,1016.15
2023-05-24T06:00:00.464Z,1016.15
2023-05-24T06:01:00.467Z,1016.19
2023-05-24T06:02:00.479Z,1016.15
2023-05-24T06:03:00.495Z,1016.18
2023-05-24T06:04:00.489Z,1016.21
2023-05-24T06:05:00.478Z,1016.14
2023-05-24T06:06:00.425Z,1016.14
2023-05-24T06:07:00.407Z,1016.17
2023-05-24T06:08:00.402Z,1016.18
2023-05-24T06:09:00.394Z,1016.18
2023-05-24T06:10:00.395Z,1016.17
2023-05-24T06:11:00.385Z,1016.19
2023-05-24T06:12:00.372Z,1016.22
2023-05-24T06:13:00.371Z,1016.24
2023-05-24T06:14:00.359Z,1016.30
2023-05-24T06:15:00.368Z,1016.29
2023-05-24T06:16:00.394Z,1016.29
2023-05-24T06:17:00.555Z,1016.33
2023-05-24T06:18:00.362Z,1016.33
2023-05-24T06:19:06.050Z,1016.32
2023-05-24T06:20:00.394Z,1016.25
2023-05-24T06:21:00.320Z,1016.21
2023-05-24T06:22:00.787Z,1016.14
2023-05-24T06:23:00.293Z,1016.10
2023-05-24T06:24:00.279Z,1016.07
2023-05-24T06:25:00.283Z,1016.04
2023-05-24T06:26:00.281Z,1016.04
2023-05-24T06:27:00.279Z,1016.05
2023-05-24T06:28:00.254Z,1016.05
2023-05-24T06:29:00.253Z,1016.00
2023-05-24T06:30:00.301Z,1016.00
2023-05-24T06:31:00.459Z,1015.97
2023-05-24T06:32:00.303Z,1015.90
2023-05-24T06:33:00.283Z,1015.87
2023-05-24T06:34:03.976Z,1015.87
2023-05-24T06:35:00.207Z,1015.83
2023-05-24T06:36:00.213Z,1015.83
2023-05-24T06:37:00.214Z,1015.78
2023-05-24T06:38:00.197Z,1015.83
2023-05-24T06:39:00.179Z,1015.78
2023-05-24T06:40:00.227Z,1015.84
2023-05-24T06:41:00.166Z,1015.85
2023-05-24T06:42:00.177Z,1015.83
2023-05-24T06:43:00.166Z,1015.79
2023-05-24T06:44:00.147Z,1015.82
2023-05-24T06:45:00.154Z,1015.82
2023-05-24T06:46:00.150Z,1015.79
2023-05-24T06:47:00.290Z,1015.81
2023-05-24T06:48:00.180Z,1015.82
2023-05-24T06:49:00.231Z,1015.79
2023-05-24T06:50:00.116Z,1015.81
2023-05-24T06:51:00.118Z,1015.84
2023-05-24T06:52:00.130Z,1015.85
2023-05-24T06:53:00.094Z,1015.88
2023-05-24T06:54:00.075Z,1015.90
2023-05-24T06:55:00.114Z,1015.94
2023-05-24T06:56:00.087Z,1015.96
2023-05-24T06:57:00.064Z,1015.97
2023-05-24T06:58:00.064Z,1016.01
2023-05-24T06:59:00.069Z,1016.00
2023-05-24T07:00:00.052Z,1016.08
2023-05-24T07:01:00.053Z,1016.14
2023-05-24T07:02:02.777Z,1016.17
2023-05-24T07:03:00.036Z,1016.16
2023-05-24T07:04:00.026Z,1016.18
2023-05-24T07:05:00.032Z,1016.18
2023-05-24T07:06:00.005Z,1016.15
2023-05-24T07:06:59.991Z,1016.13
2023-05-24T07:07:59.996Z,1016.16
2023-05-24T07:08:59.977Z,1016.18
2023-05-24T07:09:59.985Z,1016.19
2023-05-24T07:11:00.017Z,1016.21
2023-05-24T07:11:59.961Z,1016.25
2023-05-24T07:12:59.962Z,1016.32
2023-05-24T07:13:59.948Z,1016.29
2023-05-24T07:14:59.955Z,1016.27
2023-05-24T07:15:59.951Z,1016.30
2023-05-24T07:17:00.052Z,1016.27
2023-05-24T07:17:59.936Z,1016.29
2023-05-24T07:19:01.332Z,1016.27
2023-05-24T07:19:59.924Z,1016.29
2023-05-24T07:20:59.900Z,1016.33
2023-05-24T07:21:59.888Z,1016.37
2023-05-24T07:22:59.886Z,1016.38
2023-05-24T07:23:59.879Z,1016.29
2023-05-24T07:24:59.887Z,1016.30
2023-05-24T07:25:59.981Z,1016.31
2023-05-24T07:26:59.861Z,1016.32
2023-05-24T07:27:59.852Z,1016.28
2023-05-24T07:28:59.856Z,1016.28
2023-05-24T07:29:59.854Z,1016.35
2023-05-24T07:30:59.869Z,1016.31
2023-05-24T07:31:59.865Z,1016.32
2023-05-24T07:32:59.947Z,1016.36
2023-05-24T07:33:59.824Z,1016.39
2023-05-24T07:34:59.812Z,1016.39
2023-05-24T07:35:59.802Z,1016.39
2023-05-24T07:36:59.805Z,1016.43
2023-05-24T07:37:59.806Z,1016.40
2023-05-24T07:38:59.786Z,1016.36
2023-05-24T07:39:59.783Z,1016.36
2023-05-24T07:40:59.772Z,1016.38
2023-05-24T07:41:59.767Z,1016.41
2023-05-24T07:42:59.763Z,1016.42
2023-05-24T07:43:59.766Z,1016.42
2023-05-24T07:44:59.747Z,1016.42
2023-05-24T07:45:59.787Z,1016.42
2023-05-24T07:46:59.767Z,1016.43
2023-05-24T07:47:59.798Z,1016.41
2023-05-24T07:48:59.745Z,1016.43
2023-05-24T07:49:59.722Z,1016.44
2023-05-24T07:50:59.755Z,1016.38
2023-05-24T07:51:59.716Z,1016.37
2023-05-24T07:52:59.718Z,1016.41
2023-05-24T07:53:59.705Z,1016.40
2023-05-24T07:54:59.697Z,1016.40
2023-05-24T07:55:59.682Z,1016.40
2023-05-24T07:56:59.681Z,1016.39
2023-05-24T07:57:59.672Z,1016.42
2023-05-24T07:58:59.680Z,1016.35
2023-05-24T07:59:59.661Z,1016.30
2023-05-24T08:00:59.658Z,1016.31
2023-05-24T08:01:59.647Z,1016.30
2023-05-24T08:02:59.767Z,1016.32
2023-05-24T08:03:59.738Z,1016.27
2023-05-24T08:04:59.626Z,1016.28
2023-05-24T08:05:59.633Z,1016.31
2023-05-24T08:06:59.656Z,1016.29
2023-05-24T08:07:59.613Z,1016.29
2023-05-24T08:08:59.610Z,1016.25
2023-05-24T08:09:59.597Z,1016.31
2023-05-24T08:10:59.590Z,1016.28
2023-05-24T08:11:59.596Z,1016.25
2023-05-24T08:12:59.584Z,1016.26
2023-05-24T08:13:59.586Z,1016.25
2023-05-24T08:14:59.570Z,1016.25
2023-05-24T08:15:59.603Z,1016.25
2023-05-24T08:16:59.565Z,1016.26
2023-05-24T08:17:59.606Z,1016.28
2023-05-24T08:18:59.558Z,1016.30
2023-05-24T08:19:59.599Z,1016.30
2023-05-24T08:20:59.534Z,1016.31
2023-05-24T08:21:59.528Z,1016.23
2023-05-24T08:22:59.519Z,1016.24
2023-05-24T08:23:59.533Z,1016.25
2023-05-24T08:24:59.523Z,1016.25
2023-05-24T08:25:59.513Z,1016.24
2023-05-24T08:26:59.514Z,1016.22
2023-05-24T08:27:59.521Z,1016.26
2023-05-24T08:28:59.484Z,1016.27
2023-05-24T08:29:59.482Z,1016.31
2023-05-24T08:30:59.478Z,1016.34
2023-05-24T08:31:59.501Z,1016.36
2023-05-24T08:32:59.500Z,1016.36
2023-05-24T08:33:59.456Z,1016.33
2023-05-24T08:35:11.080Z,1016.39
2023-05-24T08:35:59.446Z,1016.39
2023-05-24T08:36:59.454Z,1016.37
2023-05-24T08:37:59.433Z,1016.36
2023-05-24T08:38:59.430Z,1016.38
2023-05-24T08:39:59.418Z,1016.34
2023-05-24T08:40:59.423Z,1016.36
2023-05-24T08:42:08.605Z,1016.53
2023-05-24T08:42:59.413Z,1016.48
2023-05-24T08:43:59.406Z,1016.47
2023-05-24T08:44:59.398Z,1016.51
2023-05-24T08:45:59.441Z,1016.43
2023-05-24T08:46:59.388Z,1016.43
2023-05-24T08:47:59.485Z,1016.40
2023-05-24T08:48:59.408Z,1016.45
2023-05-24T08:49:59.380Z,1016.47
2023-05-24T08:50:59.381Z,1016.40
2023-05-24T08:51:59.354Z,1016.41
2023-05-24T08:52:59.353Z,1016.40
2023-05-24T08:53:59.377Z,1016.40
2023-05-24T08:54:59.351Z,1016.43
2023-05-24T08:55:59.360Z,1016.46
2023-05-24T08:56:59.332Z,1016.46
2023-05-24T08:57:59.323Z,1016.43
2023-05-24T08:58:59.329Z,1016.38
2023-05-24T08:59:59.364Z,1016.32
2023-05-24T09:00:59.343Z,1016.39
2023-05-24T09:01:59.359Z,1016.38
2023-05-24T09:02:59.387Z,1016.37
2023-05-24T09:03:59.375Z,1016.37
2023-05-24T09:04:59.278Z,1016.36
2023-05-24T09:05:59.280Z,1016.32
2023-05-24T09:06:59.273Z,1016.28
2023-05-24T09:07:59.271Z,1016.32
2023-05-24T09:08:59.260Z,1016.25
2023-05-24T09:09:59.269Z,1016.24
2023-05-24T09:10:59.449Z,1016.25
2023-05-24T09:11:59.275Z,1016.24
2023-05-24T09:12:59.259Z,1016.24
2023-05-24T09:13:59.262Z,1016.31
2023-05-24T09:14:59.240Z,1016.26
2023-05-24T09:15:59.240Z,1016.28
2023-05-24T09:16:59.230Z,1016.26
2023-05-24T09:17:59.380Z,1016.19
2023-05-24T09:18:59.221Z,1016.27
2023-05-24T09:19:59.244Z,1016.16
2023-05-24T09:20:59.272Z,1016.15
2023-05-24T09:21:59.201Z,1016.17
2023-05-24T09:22:59.210Z,1016.18
2023-05-24T09:23:59.198Z,1016.25
2023-05-24T09:24:59.188Z,1016.21
2023-05-24T09:25:59.179Z,1016.23
2023-05-24T09:26:59.172Z,1016.21
2023-05-24T09:27:59.167Z,1016.22
2023-05-24T09:28:59.157Z,1016.17
2023-05-24T09:29:59.173Z,1016.20
2023-05-24T09:30:59.222Z,1016.21
2023-05-24T09:31:59.233Z,1016.22
2023-05-24T09:32:59.201Z,1016.23
2023-05-24T09:33:59.136Z,1016.21
2023-05-24T09:34:59.133Z,1016.20
2023-05-24T09:35:59.129Z,1016.17
2023-05-24T09:36:59.128Z,1016.14
2023-05-24T09:37:59.121Z,1016.16
2023-05-24T09:38:59.116Z,1016.13
2023-05-24T09:39:59.118Z,1016.17
2023-05-24T09:40:59.113Z,1016.13
2023-05-24T09:41:59.095Z,1016.13
2023-05-24T09:42:59.102Z,1016.11
2023-05-24T09:43:59.091Z,1016.14
2023-05-24T09:44:59.087Z,1016.19
2023-05-24T09:45:59.088Z,1016.12
2023-05-24T09:46:59.094Z,1016.20
2023-05-24T09:47:59.089Z,1016.20
2023-05-24T09:48:59.069Z,1016.20
2023-05-24T09:49:59.052Z,1016.18
2023-05-24T09:50:59.053Z,1016.20
2023-05-24T09:51:59.125Z,1016.19
2023-05-24T09:52:59.051Z,1016.18
2023-05-24T09:53:59.100Z,1016.17
2023-05-24T09:54:59.061Z,1016.19
2023-05-24T09:55:59.035Z,1016.10
2023-05-24T09:56:59.024Z,1016.08
2023-05-24T09:57:59.014Z,1016.10
2023-05-24T09:58:59.023Z,1016.04
2023-05-24T09:59:59.003Z,1016.03
2023-05-24T10:00:59.033Z,1016.05
2023-05-24T10:01:59.003Z,1016.01
2023-05-24T10:02:59.019Z,1016.03
2023-05-24T10:03:59.220Z,1016.05
2023-05-24T10:04:59.019Z,1016.03
2023-05-24T10:05:58.976Z,1016.02
2023-05-24T10:06:58.980Z,1015.99
2023-05-24T10:07:58.999Z,1015.96
2023-05-24T10:08:58.965Z,1015.96
2023-05-24T10:09:58.957Z,1016.00
2023-05-24T10:10:58.954Z,1015.98
2023-05-24T10:11:58.944Z,1015.97
2023-05-24T10:12:58.945Z,1015.97
2023-05-24T10:13:58.941Z,1015.97
2023-05-24T10:14:58.936Z,1015.94
2023-05-24T10:15:58.932Z,1015.93
2023-05-24T10:16:58.987Z,1015.98
2023-05-24T10:17:58.941Z,1016.01
2023-05-24T10:18:58.909Z,1015.91
2023-05-24T10:19:58.956Z,1015.96
2023-05-24T10:20:58.952Z,1016.03
2023-05-24T10:21:58.911Z,1015.89
2023-05-24T10:22:58.892Z,1015.96
2023-05-24T10:23:58.908Z,1015.94
2023-05-24T10:24:58.880Z,1015.94
2023-05-24T10:25:58.884Z,1015.94
2023-05-24T10:26:58.874Z,1015.93
2023-05-24T10:27:58.879Z,1015.95
2023-05-24T10:28:58.885Z,1015.92
2023-05-24T10:29:58.859Z,1015.96
2023-05-24T10:30:58.909Z,1015.90
2023-05-24T10:31:58.850Z,1015.95
2023-05-24T10:32:58.887Z,1015.97
2023-05-24T10:34:06.550Z,1016.00
2023-05-24T10:34:58.841Z,1015.98
2023-05-24T10:35:58.851Z,1015.95
2023-05-24T10:36:58.835Z,1015.90
2023-05-24T10:37:58.836Z,1015.93
2023-05-24T10:38:58.815Z,1015.92
2023-05-24T10:39:58.834Z,1015.94
2023-05-24T10:40:58.819Z,1015.95
2023-05-24T10:41:58.817Z,1015.95
2023-05-24T10:42:58.797Z,1015.97
2023-05-24T10:44:09.153Z,1015.93
2023-05-24T10:44:58.793Z,1015.98
2023-05-24T10:45:58.903Z,1015.95
2023-05-24T10:46:58.788Z,1015.94
2023-05-24T10:47:58.895Z,1015.97
2023-05-24T10:48:58.787Z,1015.94
2023-05-24T10:49:58.773Z,1015.99
2023-05-24T10:50:58.768Z,1015.99
2023-05-24T10:51:58.764Z,1016.03
2023-05-24T10:52:58.764Z,1015.98
2023-05-24T10:53:58.752Z,1015.95
2023-05-24T10:55:03.237Z,1015.91
2023-05-24T10:55:58.762Z,1015.93
2023-05-24T10:56:58.739Z,1015.96
2023-05-24T10:57:58.752Z,1015.95
2023-05-24T10:58:58.738Z,1015.98
2023-05-24T10:59:58.729Z,1016.00
2023-05-24T11:00:58.730Z,1015.95
2023-05-24T11:01:58.749Z,1016.01
2023-05-24T11:02:58.767Z,1015.99
2023-05-24T11:03:58.717Z,1015.98
2023-05-24T11:04:58.751Z,1015.96
2023-05-24T11:05:58.823Z,1015.94
2023-05-24T11:06:58.701Z,1015.94
2023-05-24T11:07:58.703Z,1015.92
2023-05-24T11:08:58.695Z,1015.86
2023-05-24T11:09:58.688Z,1015.86
2023-05-24T11:11:03.520Z,1015.87
2023-05-24T11:11:58.679Z,1015.87
2023-05-24T11:12:58.687Z,1015.90
2023-05-24T11:13:58.709Z,1015.95
2023-05-24T11:14:58.671Z,1015.92
2023-05-24T11:15:58.706Z,1015.95
2023-05-24T11:16:58.659Z,1015.89
2023-05-24T11:17:58.714Z,1015.93
2023-05-24T11:18:58.674Z,1015.87
2023-05-24T11:19:58.655Z,1015.87
2023-05-24T11:20:58.639Z,1015.90
2023-05-24T11:21:58.646Z,1015.88
2023-05-24T11:22:58.668Z,1015.92
2023-05-24T11:23:58.727Z,1015.85
2023-05-24T11:24:58.631Z,1015.80
2023-05-24T11:25:58.616Z,1015.76
2023-05-24T11:26:58.615Z,1015.77
2023-05-24T11:27:58.689Z,1015.76
2023-05-24T11:28:58.600Z,1015.75
2023-05-24T11:29:58.616Z,1015.73
2023-05-24T11:30:58.598Z,1015.72
2023-05-24T11:31:58.696Z,1015.69
2023-05-24T11:32:58.631Z,1015.65
2023-05-24T11:33:58.591Z,1015.67
2023-05-24T11:34:58.589Z,1015.66
2023-05-24T11:35:58.591Z,1015.60
2023-05-24T11:36:58.582Z,1015.61
2023-05-24T11:37:58.577Z,1015.58
2023-05-24T11:38:58.577Z,1015.59
2023-05-24T11:39:58.555Z,1015.61
2023-05-24T11:40:58.555Z,1015.64
2023-05-24T11:41:58.550Z,1015.61
2023-05-24T11:42:58.593Z,1015.65
2023-05-24T11:43:58.547Z,1015.63
2023-05-24T11:44:59.293Z,1015.63
2023-05-24T11:45:58.604Z,1015.58
2023-05-24T11:46:58.533Z,1015.60
2023-05-24T11:47:58.574Z,1015.55
2023-05-24T11:48:58.522Z,1015.55
2023-05-24T11:49:58.517Z,1015.58
2023-05-24T11:50:58.524Z,1015.53
2023-05-24T11:51:58.514Z,1015.42
2023-05-24T11:52:58.508Z,1015.50
2023-05-24T11:53:58.506Z,1015.49
2023-05-24T11:54:58.500Z,1015.44
2023-05-24T11:55:58.495Z,1015.48
2023-05-24T11:56:58.504Z,1015.49
2023-05-24T11:57:58.499Z,1015.41
2023-05-24T11:58:58.525Z,1015.49
2023-05-24T11:59:58.485Z,1015.45
2023-05-24T12:00:58.479Z,1015.47
2023-05-24T12:01:58.487Z,1015.50
2023-05-24T12:02:58.635Z,1015.53
2023-05-24T12:03:58.507Z,1015.53
2023-05-24T12:04:58.482Z,1015.57